Time;durP1;ratioP1;P1;durP2;ratioP2;P2;SDS_P1;SDS_P2;PMS_P1;PMS_P2;Temp;Humidity;BMP_temperature;BMP_pressure;BME280_temperature;BME280_humidity;BME280_pressure;Samples;Min_cycle;Max_cycle;Signal;HPM_P1;HPM_P2
2023/10/19 00:00:48;;;;;;;39.53;26.80;;;;;;;;;;5008432;28;20481;-50
2023/10/19 00:03:14;;;;;;;45.40;27.13;;;;;;;;;;5000069;28;20382;-50
2023/10/19 00:05:44;;;;;;;42.00;25.17;;;;;;;;;;5033922;28;20042;-49
2023/10/19 00:08:21;;;;;;;39.85;25.63;;;;;;;;;;5029525;28;20057;-48
2023/10/19 00:11:02;;;;;;;43.97;25.55;;;;;;;;;;5014626;28;20038;-50
2023/10/19 00:13:29;;;;;;;42.20;26.75;;;;;;;;;;5029316;28;20026;-49
2023/10/19 00:15:57;;;;;;;41.83;26.33;;;;;;;;;;5020280;28;20029;-50
2023/10/19 00:18:24;;;;;;;50.80;25.45;;;;;;;;;;5031568;28;20072;-49
2023/10/19 00:20:52;;;;;;;44.95;26.08;;;;;;;;;;5032982;28;20403;-48
2023/10/19 00:23:31;;;;;;;43.80;26.50;;;;;;;;;;5013001;28;20029;-48
2023/10/19 00:26:17;;;;;;;43.58;25.65;;;;;;;;;;4994896;28;20045;-48
2023/10/19 00:28:53;;;;;;;38.25;27.10;;;;;;;;;;5031678;28;20051;-49
2023/10/19 00:31:20;;;;;;;50.83;28.13;;;;;;;;;;5006130;28;20110;-51
2023/10/19 00:33:46;;;;;;;47.08;28.35;;;;;;;;;;5013904;28;20034;-49
2023/10/19 00:36:13;;;;;;;45.70;26.48;;;;;;;;;;5032259;28;20021;-48
2023/10/19 00:38:47;;;;;;;41.45;26.92;;;;;;;;;;5032460;28;20022;-49
2023/10/19 00:41:19;;;;;;;37.47;25.33;;;;;;;;;;5013318;28;20563;-48
2023/10/19 00:43:46;;;;;;;39.60;26.15;;;;;;;;;;5002160;28;20040;-49
2023/10/19 00:48:46;;;;;;;39.72;28.08;;;;;;;;;;5050597;28;20146;-48
2023/10/19 00:53:56;;;;;;;43.42;25.88;;;;;;;;;;5032809;28;20298;-49
2023/10/19 00:56:23;;;;;;;48.70;28.55;;;;;;;;;;5014873;28;20021;-53
2023/10/19 00:58:54;;;;;;;45.83;26.80;;;;;;;;;;5014903;28;20399;-48
2023/10/19 01:01:24;;;;;;;42.15;26.02;;;;;;;;;;5038619;28;20107;-48
2023/10/19 01:03:55;;;;;;;41.70;28.00;;;;;;;;;;5034620;28;20024;-49
2023/10/19 01:06:23;;;;;;;47.88;26.95;;;;;;;;;;5034527;28;20167;-50
2023/10/19 01:08:51;;;;;;;40.97;27.48;;;;;;;;;;5018112;28;20120;-49
2023/10/19 01:11:20;;;;;;;42.47;27.85;;;;;;;;;;5052356;28;20032;-48
2023/10/19 01:13:47;;;;;;;39.85;26.88;;;;;;;;;;5052351;28;20031;-50
2023/10/19 01:16:23;;;;;;;43.15;29.25;;;;;;;;;;5006066;28;20022;-50
2023/10/19 01:18:56;;;;;;;47.22;28.85;;;;;;;;;;4997611;28;20025;-49
2023/10/19 01:21:25;;;;;;;45.00;28.77;;;;;;;;;;4997744;28;20488;-49
2023/10/19 01:23:52;;;;;;;44.50;28.08;;;;;;;;;;5014243;28;20034;-50
2023/10/19 01:26:22;;;;;;;47.97;29.15;;;;;;;;;;4994371;28;20034;-51
2023/10/19 01:28:48;;;;;;;44.75;28.95;;;;;;;;;;4999010;28;20112;-49
2023/10/19 01:34:06;;;;;;;48.80;30.48;;;;;;;;;;5026441;28;20047;-48
2023/10/19 01:36:42;;;;;;;44.40;30.27;;;;;;;;;;5015149;28;20029;-49
2023/10/19 01:39:11;;;;;;;44.88;29.77;;;;;;;;;;4996186;28;20029;-48
2023/10/19 01:41:39;;;;;;;50.28;29.92;;;;;;;;;;4999538;28;20029;-48
2023/10/19 01:44:12;;;;;;;42.60;28.92;;;;;;;;;;5012123;28;20034;-48
2023/10/19 01:46:39;;;;;;;45.65;30.33;;;;;;;;;;5012160;28;20021;-49
2023/10/19 01:49:08;;;;;;;53.80;31.57;;;;;;;;;;5051176;28;20458;-48
2023/10/19 01:51:38;;;;;;;44.50;30.15;;;;;;;;;;5023767;28;20495;-50
2023/10/19 01:54:05;;;;;;;42.83;29.42;;;;;;;;;;5014311;28;20025;-50
2023/10/19 01:56:33;;;;;;;;;;;;;;;;;;5030148;28;20024;-49
2023/10/19 01:58:59;;;;;;;45.40;30.20;;;;;;;;;;4998652;28;19951;-48
2023/10/19 02:03:55;;;;;;;48.97;32.53;;;;;;;;;;4994409;28;20041;-47
2023/10/19 02:09:17;;;;;;;44.95;29.15;;;;;;;;;;5015005;28;20034;-49
2023/10/19 02:11:47;;;;;;;50.00;31.75;;;;;;;;;;5011683;28;20088;-48
2023/10/19 02:14:14;;;;;;;58.03;33.20;;;;;;;;;;4994140;28;20080;-48
2023/10/19 02:16:52;;;;;;;44.42;31.85;;;;;;;;;;5015125;28;20033;-48
2023/10/19 02:19:22;;;;;;;52.35;31.90;;;;;;;;;;5011893;28;20028;-49
2023/10/19 02:21:49;;;;;;;48.92;32.13;;;;;;;;;;5029637;28;20034;-49
2023/10/19 02:24:15;;;;;;;50.92;32.28;;;;;;;;;;4999823;28;20033;-49
2023/10/19 02:26:42;;;;;;;46.58;32.97;;;;;;;;;;5013260;28;20037;-49
2023/10/19 02:29:09;;;;;;;;;;;;;;;;;;5019651;28;20390;-50
2023/10/19 02:31:42;;;;;;;53.72;32.53;;;;;;;;;;5005759;28;20307;-49
2023/10/19 02:34:10;;;;;;;49.90;32.88;;;;;;;;;;4996259;28;20092;-49
2023/10/19 02:36:37;;;;;;;47.03;31.10;;;;;;;;;;5011335;28;20087;-48
2023/10/19 02:39:07;;;;;;;50.33;33.10;;;;;;;;;;4994976;28;20022;-49
2023/10/19 02:41:36;;;;;;;52.53;33.53;;;;;;;;;;4993839;28;20068;-48
2023/10/19 02:44:09;;;;;;;48.20;32.63;;;;;;;;;;4995037;28;20026;-48
2023/10/19 02:46:41;;;;;;;58.65;34.65;;;;;;;;;;5011396;28;20518;-50
2023/10/19 02:49:13;;;;;;;55.17;33.70;;;;;;;;;;5017971;28;20084;-49
2023/10/19 02:51:40;;;;;;;49.60;32.40;;;;;;;;;;5021179;28;20026;-49
2023/10/19 02:54:07;;;;;;;44.55;32.70;;;;;;;;;;5018269;28;20060;-51
2023/10/19 02:56:35;;;;;;;54.50;34.38;;;;;;;;;;4997308;28;20029;-48
2023/10/19 02:59:03;;;;;;;51.13;34.03;;;;;;;;;;5008114;28;20033;-49
2023/10/19 03:01:34;;;;;;;48.58;32.38;;;;;;;;;;5032212;28;20392;-49
2023/10/19 03:04:01;;;;;;;49.90;32.35;;;;;;;;;;5011129;28;20488;-50
2023/10/19 03:06:34;;;;;;;50.15;33.42;;;;;;;;;;5016674;28;20515;-50
2023/10/19 03:09:13;;;;;;;52.50;32.92;;;;;;;;;;5000481;28;20041;-48
2023/10/19 03:11:43;;;;;;;49.20;31.90;;;;;;;;;;4981031;28;20568;-48
2023/10/19 03:14:11;;;;;;;48.95;32.90;;;;;;;;;;4998951;28;20018;-48
2023/10/19 03:16:38;;;;;;;48.05;32.78;;;;;;;;;;5037190;28;20028;-50
2023/10/19 03:19:04;;;;;;;49.88;33.17;;;;;;;;;;5054652;28;20021;-49
2023/10/19 03:21:34;;;;;;;50.58;33.92;;;;;;;;;;5036340;28;20159;-52
2023/10/19 03:24:12;;;;;;;57.08;34.78;;;;;;;;;;5008426;28;20042;-49
2023/10/19 03:26:48;;;;;;;50.08;34.28;;;;;;;;;;4996917;28;20033;-49
2023/10/19 03:29:15;;;;;;;55.13;35.22;;;;;;;;;;5014769;28;20362;-53
2023/10/19 03:31:47;;;;;;;54.33;35.28;;;;;;;;;;5027751;28;20072;-50
2023/10/19 03:34:13;;;;;;;53.30;35.58;;;;;;;;;;5019434;28;20029;-50
2023/10/19 03:36:40;;;;;;;51.95;35.33;;;;;;;;;;4996477;28;20022;-47
2023/10/19 03:39:13;;;;;;;56.83;36.50;;;;;;;;;;5007473;28;20036;-50
2023/10/19 03:41:42;;;;;;;51.70;34.20;;;;;;;;;;5016464;28;20064;-49
2023/10/19 03:44:24;;;;;;;47.90;33.80;;;;;;;;;;5034164;28;20037;-48
2023/10/19 03:46:57;;;;;;;59.20;36.45;;;;;;;;;;5001665;28;20041;-49
2023/10/19 03:49:30;;;;;;;56.50;36.75;;;;;;;;;;5031198;28;20025;-48
2023/10/19 03:54:39;;;;;;;56.97;35.75;;;;;;;;;;5033986;28;20079;-49
2023/10/19 03:57:12;;;;;;;54.80;34.90;;;;;;;;;;5006991;28;20122;-48
2023/10/19 03:59:41;;;;;;;54.90;35.00;;;;;;;;;;5013224;28;20490;-48
2023/10/19 04:02:16;;;;;;;56.50;37.28;;;;;;;;;;5022737;28;20053;-49
2023/10/19 04:04:48;;;;;;;54.95;34.80;;;;;;;;;;5013562;28;20113;-48
2023/10/19 04:07:21;;;;;;;55.30;36.15;;;;;;;;;;5013420;28;20033;-48
2023/10/19 04:12:41;;;;;;;51.25;32.83;;;;;;;;;;4995366;28;20080;-48
2023/10/19 04:15:17;;;;;;;53.20;35.83;;;;;;;;;;5013794;28;20088;-48
2023/10/19 04:17:48;;;;;;;51.95;34.75;;;;;;;;;;5012303;28;20107;-48
2023/10/19 04:22:49;;;;;;;58.63;36.72;;;;;;;;;;5013539;28;20030;-48
2023/10/19 04:25:18;;;;;;;60.53;37.97;;;;;;;;;;5013643;28;20022;-48
2023/10/19 04:27:44;;;;;;;50.25;33.35;;;;;;;;;;5013501;28;20087;-48
2023/10/19 04:30:24;;;;;;;56.37;35.43;;;;;;;;;;4995958;28;20076;-48
2023/10/19 04:32:50;;;;;;;55.25;35.38;;;;;;;;;;5013401;28;20026;-48
2023/10/19 04:35:23;;;;;;;61.67;36.67;;;;;;;;;;5013419;28;20036;-48
2023/10/19 04:37:51;;;;;;;50.70;33.97;;;;;;;;;;5013162;28;20057;-48
2023/10/19 04:40:18;;;;;;;58.72;36.13;;;;;;;;;;5013275;28;20100;-48
2023/10/19 04:42:44;;;;;;;51.58;35.63;;;;;;;;;;5013273;28;20040;-48
2023/10/19 04:45:11;;;;;;;53.33;35.40;;;;;;;;;;5013265;28;20026;-48
2023/10/19 04:47:38;;;;;;;56.42;36.20;;;;;;;;;;5013073;28;20569;-48
2023/10/19 04:50:04;;;;;;;60.67;37.77;;;;;;;;;;5013121;28;20030;-48
2023/10/19 04:52:31;;;;;;;62.83;38.50;;;;;;;;;;4995792;28;20435;-48
2023/10/19 04:54:57;;;;;;;57.25;37.30;;;;;;;;;;5013236;28;20087;-48
2023/10/19 04:57:23;;;;;;;59.47;38.30;;;;;;;;;;4995352;28;20072;-49
2023/10/19 04:59:50;;;;;;;57.92;38.55;;;;;;;;;;4995168;28;20112;-51
2023/10/19 05:02:16;;;;;;;59.30;40.33;;;;;;;;;;5013024;28;20235;-49
2023/10/19 05:04:43;;;;;;;65.63;40.00;;;;;;;;;;5012859;28;20291;-49
2023/10/19 05:07:12;;;;;;;;;;;;;;;;;;5013178;28;20111;-48
2023/10/19 05:09:39;;;;;;;60.58;35.55;;;;;;;;;;5012697;28;19917;-48
2023/10/19 05:12:09;;;;;;;;;;;;;;;;;;4995584;28;20033;-49
2023/10/19 05:14:38;;;;;;;57.60;37.45;;;;;;;;;;4995015;28;19932;-49
2023/10/19 05:17:05;;;;;;;61.67;39.28;;;;;;;;;;4994918;28;20026;-49
2023/10/19 05:19:34;;;;;;;59.22;39.65;;;;;;;;;;5012595;28;20118;-48
2023/10/19 05:22:01;;;;;;;58.65;39.70;;;;;;;;;;4994933;28;20041;-48
2023/10/19 05:24:27;;;;;;;61.67;39.80;;;;;;;;;;5011634;28;20455;-48
2023/10/19 05:26:54;;;;;;;57.65;39.63;;;;;;;;;;5012324;28;20038;-48
2023/10/19 05:29:20;;;;;;;62.60;39.90;;;;;;;;;;4994884;28;20038;-48
2023/10/19 05:31:46;;;;;;;62.75;40.42;;;;;;;;;;4994722;28;20037;-48
2023/10/19 05:34:13;;;;;;;64.90;40.47;;;;;;;;;;5012400;28;20026;-50
2023/10/19 05:36:39;;;;;;;60.03;38.83;;;;;;;;;;5012182;28;20488;-48
2023/10/19 05:39:09;;;;;;;55.55;39.88;;;;;;;;;;5012365;28;20136;-49
2023/10/19 05:41:35;;;;;;;65.85;41.20;;;;;;;;;;4978404;28;20025;-48
2023/10/19 05:44:01;;;;;;;59.83;40.83;;;;;;;;;;4994639;28;20026;-50
2023/10/19 05:46:28;;;;;;;63.42;43.28;;;;;;;;;;5012267;28;20479;-47
2023/10/19 05:48:56;;;;;;;;;;;;;;;;;;5012691;28;20025;-48
2023/10/19 05:51:22;;;;;;;68.38;42.10;;;;;;;;;;5012007;28;19964;-48
2023/10/19 05:53:48;;;;;;;61.17;40.88;;;;;;;;;;5012153;28;20033;-49
2023/10/19 05:56:16;;;;;;;61.63;40.67;;;;;;;;;;5011839;28;20018;-48
2023/10/19 05:58:44;;;;;;;64.07;42.58;;;;;;;;;;5011980;28;20484;-48
2023/10/19 06:01:10;;;;;;;68.15;40.65;;;;;;;;;;5011830;28;20129;-49
2023/10/19 06:03:38;;;;;;;67.55;42.88;;;;;;;;;;5011974;28;20500;-48
2023/10/19 06:06:04;;;;;;;66.50;43.22;;;;;;;;;;5011814;28;20018;-48
2023/10/19 06:08:31;;;;;;;78.75;49.08;;;;;;;;;;4994296;28;20029;-48
2023/10/19 06:10:57;;;;;;;68.87;43.50;;;;;;;;;;5011825;28;20030;-48
2023/10/19 06:13:23;;;;;;;75.32;44.92;;;;;;;;;;5011864;28;20404;-48
2023/10/19 06:15:49;;;;;;;65.57;43.90;;;;;;;;;;5011806;28;20026;-47
2023/10/19 06:18:15;;;;;;;68.35;45.25;;;;;;;;;;5011869;28;20476;-48
2023/10/19 06:20:45;;;;;;;68.32;46.13;;;;;;;;;;4994231;28;20034;-49
2023/10/19 06:23:11;;;;;;;74.00;46.67;;;;;;;;;;5011829;28;20062;-49
2023/10/19 06:25:38;;;;;;;70.80;45.88;;;;;;;;;;5011708;28;20676;-49
2023/10/19 06:28:04;;;;;;;72.15;44.90;;;;;;;;;;5011547;28;20038;-49
2023/10/19 06:30:31;;;;;;;64.55;41.80;;;;;;;;;;5011402;28;20477;-48
2023/10/19 06:33:02;;;;;;;74.70;47.20;;;;;;;;;;5030924;28;20045;-50
2023/10/19 06:35:29;;;;;;;70.65;43.65;;;;;;;;;;5033409;28;20618;-48
2023/10/19 06:37:55;;;;;;;68.93;45.45;;;;;;;;;;5017745;28;20025;-51
2023/10/19 06:40:22;;;;;;;76.57;49.63;;;;;;;;;;5030570;28;20018;-50
2023/10/19 06:42:51;;;;;;;74.63;45.72;;;;;;;;;;5024215;28;20404;-50
2023/10/19 06:45:19;;;;;;;75.15;46.65;;;;;;;;;;5015716;28;20060;-49
2023/10/19 06:47:46;;;;;;;73.93;45.65;;;;;;;;;;5015379;28;20026;-48
2023/10/19 06:50:12;;;;;;;;;;;;;;;;;;5015841;28;20377;-51
2023/10/19 06:52:39;;;;;;;72.32;43.97;;;;;;;;;;4997806;28;19956;-49
2023/10/19 06:55:10;;;;;;;71.07;45.42;;;;;;;;;;5015212;28;20473;-49
2023/10/19 06:57:38;;;;;;;77.63;47.00;;;;;;;;;;5015388;28;20091;-49
2023/10/19 07:00:14;;;;;;;73.95;46.40;;;;;;;;;;5015176;28;20117;-48
2023/10/19 07:02:41;;;;;;;74.03;44.50;;;;;;;;;;5015297;28;20034;-47
2023/10/19 07:05:10;;;;;;;75.47;47.63;;;;;;;;;;4998447;28;20389;-48
2023/10/19 07:07:39;;;;;;;79.03;46.95;;;;;;;;;;5015019;28;20057;-52
2023/10/19 07:10:06;;;;;;;74.05;46.55;;;;;;;;;;5001262;28;20369;-49
2023/10/19 07:12:34;;;;;;;74.25;44.88;;;;;;;;;;5017490;28;20026;-50
2023/10/19 07:15:00;;;;;;;75.05;45.35;;;;;;;;;;5034898;28;20057;-50
2023/10/19 07:17:27;;;;;;;73.63;44.25;;;;;;;;;;5034647;28;20044;-53
2023/10/19 07:19:54;;;;;;;75.65;47.13;;;;;;;;;;5034541;28;20102;-52
2023/10/19 07:22:22;;;;;;;75.65;43.40;;;;;;;;;;5034773;28;20032;-49
2023/10/19 07:24:49;;;;;;;76.38;44.38;;;;;;;;;;5034521;28;20094;-50
2023/10/19 07:27:18;;;;;;;72.38;45.35;;;;;;;;;;5000391;28;20420;-47
2023/10/19 07:29:45;;;;;;;65.80;42.60;;;;;;;;;;5016910;28;20030;-51
2023/10/19 07:32:13;;;;;;;84.97;45.28;;;;;;;;;;5034436;28;20370;-49
2023/10/19 07:34:40;;;;;;;68.03;43.65;;;;;;;;;;5034248;28;20079;-50
2023/10/19 07:37:07;;;;;;;62.40;43.45;;;;;;;;;;5034252;28;20022;-49
2023/10/19 07:39:33;;;;;;;66.72;46.28;;;;;;;;;;5034151;28;20026;-50
2023/10/19 07:42:00;;;;;;;64.82;44.25;;;;;;;;;;5034295;28;20025;-51
2023/10/19 07:44:26;;;;;;;60.60;41.43;;;;;;;;;;5034190;28;20025;-47
2023/10/19 07:46:52;;;;;;;65.45;42.08;;;;;;;;;;5033012;28;20263;-47
2023/10/19 07:49:19;;;;;;;62.55;41.17;;;;;;;;;;5016391;28;20057;-49
2023/10/19 07:51:46;;;;;;;56.90;41.95;;;;;;;;;;5016375;28;20407;-48
2023/10/19 07:54:13;;;;;;;61.85;43.35;;;;;;;;;;5034102;28;20036;-50
2023/10/19 07:56:39;;;;;;;60.73;40.77;;;;;;;;;;5033845;28;20036;-50
2023/10/19 07:59:06;;;;;;;62.08;41.63;;;;;;;;;;5016253;28;20026;-50
2023/10/19 08:01:33;;;;;;;60.53;42.42;;;;;;;;;;5034151;28;20033;-50
2023/10/19 08:03:59;;;;;;;64.13;42.40;;;;;;;;;;5033848;28;20116;-49
2023/10/19 08:06:26;;;;;;;57.15;39.25;;;;;;;;;;5033743;28;20345;-53
2023/10/19 08:08:53;;;;;;;57.15;39.47;;;;;;;;;;5033908;28;20040;-50
2023/10/19 08:11:19;;;;;;;56.83;38.65;;;;;;;;;;5033455;28;20060;-48
2023/10/19 08:13:45;;;;;;;60.20;39.17;;;;;;;;;;5033720;28;20033;-49
2023/10/19 08:16:12;;;;;;;55.28;37.90;;;;;;;;;;5015772;28;20354;-52
2023/10/19 08:18:39;;;;;;;57.30;37.97;;;;;;;;;;5015124;28;20153;-52
2023/10/19 08:21:05;;;;;;;;;;;;;;;;;;5033034;28;20065;-48
2023/10/19 08:23:31;;;;;;;58.28;39.30;;;;;;;;;;5014629;28;19909;-47
2023/10/19 08:25:58;;;;;;;64.30;41.55;;;;;;;;;;5033528;28;20041;-48
2023/10/19 08:28:25;;;;;;;54.20;37.75;;;;;;;;;;5033436;28;20033;-49
2023/10/19 08:30:57;;;;;;;60.85;39.50;;;;;;;;;;5033118;28;20110;-48
2023/10/19 08:33:27;;;;;;;51.50;37.38;;;;;;;;;;5033277;28;20056;-50
2023/10/19 08:35:56;;;;;;;53.75;38.85;;;;;;;;;;5033239;28;20075;-49
2023/10/19 08:38:26;;;;;;;47.72;35.45;;;;;;;;;;5033309;28;20053;-51
2023/10/19 08:40:52;;;;;;;53.72;37.45;;;;;;;;;;5015299;28;20040;-50
2023/10/19 08:43:18;;;;;;;54.67;40.05;;;;;;;;;;5033080;28;20025;-49
2023/10/19 08:45:45;;;;;;;51.42;37.00;;;;;;;;;;5033170;28;20373;-50
2023/10/19 08:48:11;;;;;;;55.88;40.13;;;;;;;;;;5033057;28;20060;-47
2023/10/19 08:50:38;;;;;;;52.67;39.30;;;;;;;;;;5032921;28;20033;-48
2023/10/19 08:53:09;;;;;;;47.60;37.83;;;;;;;;;;5032982;28;20040;-48
2023/10/19 08:55:36;;;;;;;48.45;37.95;;;;;;;;;;5033017;28;20032;-49
2023/10/19 08:58:05;;;;;;;49.10;37.17;;;;;;;;;;5032597;28;20021;-50
2023/10/19 09:00:44;;;;;;;51.15;34.78;;;;;;;;;;5032604;28;20183;-52
2023/10/19 09:03:13;;;;;;;51.40;38.88;;;;;;;;;;5032806;28;20033;-51
2023/10/19 09:05:40;;;;;;;49.35;37.05;;;;;;;;;;5032764;28;20103;-48
2023/10/19 09:08:07;;;;;;;53.88;39.08;;;;;;;;;;5032604;28;20040;-48
2023/10/19 09:10:36;;;;;;;55.47;39.72;;;;;;;;;;5032659;28;20041;-49
2023/10/19 09:13:02;;;;;;;52.22;39.58;;;;;;;;;;5014948;28;20468;-49
2023/10/19 09:15:32;;;;;;;49.08;36.58;;;;;;;;;;5032500;28;20068;-48
2023/10/19 09:17:59;;;;;;;52.67;38.53;;;;;;;;;;5032368;28;20027;-48
2023/10/19 09:20:28;;;;;;;53.92;37.13;;;;;;;;;;5032325;28;20063;-51
2023/10/19 09:22:56;;;;;;;54.10;37.55;;;;;;;;;;5032546;28;20033;-49
2023/10/19 09:25:22;;;;;;;49.33;36.55;;;;;;;;;;5032291;28;20029;-50
2023/10/19 09:27:49;;;;;;;50.33;36.90;;;;;;;;;;5014494;28;20052;-49
2023/10/19 09:30:19;;;;;;;47.92;37.95;;;;;;;;;;5032101;28;20033;-50
2023/10/19 09:32:48;;;;;;;48.50;36.72;;;;;;;;;;5032139;28;20116;-51
2023/10/19 09:35:19;;;;;;;46.13;35.75;;;;;;;;;;5032163;28;20029;-49
2023/10/19 09:37:45;;;;;;;46.08;36.90;;;;;;;;;;5031974;28;20447;-51
2023/10/19 09:40:12;;;;;;;46.60;34.60;;;;;;;;;;5031972;28;20128;-49
2023/10/19 09:42:46;;;;;;;54.80;37.58;;;;;;;;;;5032059;28;20025;-50
2023/10/19 09:45:12;;;;;;;46.28;34.28;;;;;;;;;;5031969;28;20033;-50
2023/10/19 09:47:40;;;;;;;44.83;35.53;;;;;;;;;;5014100;28;20033;-49
2023/10/19 09:50:07;;;;;;;47.42;36.17;;;;;;;;;;5031715;28;20037;-49
2023/10/19 09:52:37;;;;;;;43.20;34.97;;;;;;;;;;5031945;28;20451;-48
2023/10/19 09:55:04;;;;;;;47.58;36.42;;;;;;;;;;5031917;28;20260;-48
2023/10/19 09:57:38;;;;;;;47.17;35.00;;;;;;;;;;5031696;28;20380;-50
2023/10/19 10:00:14;;;;;;;47.45;33.38;;;;;;;;;;5013837;28;20171;-49
2023/10/19 10:02:45;;;;;;;44.95;34.05;;;;;;;;;;5014182;28;20052;-51
2023/10/19 10:05:30;;;;;;;42.60;33.10;;;;;;;;;;5031744;28;20495;-50
2023/10/19 10:08:15;;;;;;;45.47;33.55;;;;;;;;;;5031695;28;20025;-49
2023/10/19 10:10:41;;;;;;;43.90;33.65;;;;;;;;;;5013143;28;20488;-49
2023/10/19 10:13:34;;;;;;;42.63;31.58;;;;;;;;;;5031615;28;20028;-48
2023/10/19 10:16:01;;;;;;;45.50;34.10;;;;;;;;;;5031241;28;20032;-48
2023/10/19 10:18:31;;;;;;;50.72;34.22;;;;;;;;;;5031973;28;20607;-48
2023/10/19 10:21:10;;;;;;;51.85;35.67;;;;;;;;;;5013850;28;20036;-49
2023/10/19 10:23:43;;;;;;;45.00;34.58;;;;;;;;;;5013837;28;20087;-49
2023/10/19 10:26:10;;;;;;;49.03;36.97;;;;;;;;;;5031352;28;20424;-46
2023/10/19 10:28:36;;;;;;;46.88;34.50;;;;;;;;;;5031530;28;20025;-49
2023/10/19 10:31:16;;;;;;;42.97;31.67;;;;;;;;;;5031335;28;20029;-49
2023/10/19 10:33:51;;;;;;;46.55;34.10;;;;;;;;;;5031721;28;20376;-49
2023/10/19 10:36:18;;;;;;;48.33;36.05;;;;;;;;;;5031256;28;20032;-48
2023/10/19 10:38:44;;;;;;;45.67;34.83;;;;;;;;;;5013858;28;20083;-49
2023/10/19 10:41:10;;;;;;;48.80;36.50;;;;;;;;;;5031391;28;20107;-50
2023/10/19 10:43:51;;;;;;;48.27;35.47;;;;;;;;;;5023564;28;20592;-50
2023/10/19 10:46:17;;;;;;;50.15;37.42;;;;;;;;;;5022651;28;20029;-50
2023/10/19 10:48:43;;;;;;;44.88;35.08;;;;;;;;;;5011295;28;20044;-49
2023/10/19 10:51:20;;;;;;;41.33;34.20;;;;;;;;;;5029430;28;20116;-54
2023/10/19 10:53:51;;;;;;;38.38;33.08;;;;;;;;;;5007809;28;20484;-50
2023/10/19 10:56:17;;;;;;;50.83;41.78;;;;;;;;;;5027745;28;20108;-49
2023/10/19 10:58:44;;;;;;;36.08;30.65;;;;;;;;;;5028086;28;20536;-49
2023/10/19 11:01:10;;;;;;;27.00;24.17;;;;;;;;;;5030881;28;20671;-48
2023/10/19 11:03:37;;;;;;;25.10;22.53;;;;;;;;;;5031300;28;20113;-50
2023/10/19 11:06:07;;;;;;;25.70;22.90;;;;;;;;;;5031041;28;20026;-48
2023/10/19 11:08:34;;;;;;;25.65;21.63;;;;;;;;;;5031027;28;20473;-48
2023/10/19 11:11:10;;;;;;;25.17;22.52;;;;;;;;;;5031065;28;20029;-48
2023/10/19 11:13:38;;;;;;;27.02;23.15;;;;;;;;;;5013544;28;20077;-49
2023/10/19 11:16:05;;;;;;;24.60;22.10;;;;;;;;;;5030954;28;20032;-49
2023/10/19 11:18:39;;;;;;;24.58;21.98;;;;;;;;;;5012640;28;20035;-54
2023/10/19 11:21:12;;;;;;;28.17;23.05;;;;;;;;;;5031014;28;20105;-53
2023/10/19 11:23:42;;;;;;;24.67;22.10;;;;;;;;;;5034626;28;20066;-50
2023/10/19 11:26:09;;;;;;;26.98;23.92;;;;;;;;;;5034704;28;20480;-49
2023/10/19 11:28:42;;;;;;;25.95;23.20;;;;;;;;;;5016832;28;20021;-51
2023/10/19 11:31:13;;;;;;;28.35;24.33;;;;;;;;;;5000453;28;20083;-48
2023/10/19 11:33:41;;;;;;;25.38;22.60;;;;;;;;;;5034529;28;20021;-49
2023/10/19 11:36:07;;;;;;;27.20;23.73;;;;;;;;;;5034221;28;20028;-50
2023/10/19 11:38:35;;;;;;;30.73;25.58;;;;;;;;;;5034416;28;20060;-49
2023/10/19 11:41:03;;;;;;;30.08;25.80;;;;;;;;;;5034276;28;20036;-49
2023/10/19 11:43:29;;;;;;;29.70;26.08;;;;;;;;;;5016546;28;20022;-51
2023/10/19 11:45:56;;;;;;;28.38;25.30;;;;;;;;;;5034184;28;20365;-50
2023/10/19 11:48:22;;;;;;;27.50;24.70;;;;;;;;;;5034325;28;20025;-50
2023/10/19 11:50:49;;;;;;;27.63;24.70;;;;;;;;;;5016369;28;20049;-51
2023/10/19 11:53:15;;;;;;;26.73;23.92;;;;;;;;;;5034176;28;20025;-51
2023/10/19 11:55:41;;;;;;;29.63;26.43;;;;;;;;;;5034224;28;20041;-50
2023/10/19 11:58:13;;;;;;;26.85;23.77;;;;;;;;;;5033920;28;20264;-50
2023/10/19 12:00:41;;;;;;;27.05;24.35;;;;;;;;;;5033783;28;20566;-51
2023/10/19 12:03:10;;;;;;;21.65;19.33;;;;;;;;;;5014329;28;20537;-49
2023/10/19 12:05:37;;;;;;;23.05;20.65;;;;;;;;;;5009748;28;20038;-50
2023/10/19 12:08:03;;;;;;;24.92;22.00;;;;;;;;;;5011220;28;20036;-53
2023/10/19 12:10:35;;;;;;;24.33;21.73;;;;;;;;;;5018556;28;20084;-51
2023/10/19 12:13:05;;;;;;;22.70;20.42;;;;;;;;;;5033460;28;20034;-49
2023/10/19 12:15:32;;;;;;;23.52;21.02;;;;;;;;;;5006451;28;20524;-50
2023/10/19 12:17:59;;;;;;;25.15;22.20;;;;;;;;;;4996146;28;20448;-51
2023/10/19 12:20:26;;;;;;;22.05;19.70;;;;;;;;;;5003675;28;20040;-50
2023/10/19 12:22:53;;;;;;;20.98;18.77;;;;;;;;;;5017744;28;20022;-51
2023/10/19 12:25:29;;;;;;;24.20;21.60;;;;;;;;;;5014817;28;20112;-48
2023/10/19 12:27:55;;;;;;;24.10;20.80;;;;;;;;;;5012220;28;20034;-51
2023/10/19 12:30:24;;;;;;;24.48;21.92;;;;;;;;;;4998057;28;20034;-49
2023/10/19 12:32:51;;;;;;;23.88;19.85;;;;;;;;;;5006187;28;20033;-48
2023/10/19 12:35:19;;;;;;;22.98;19.90;;;;;;;;;;5031662;28;20029;-49
2023/10/19 12:37:51;;;;;;;24.67;22.05;;;;;;;;;;5032844;28;20033;-48
2023/10/19 12:40:26;;;;;;;22.92;20.42;;;;;;;;;;5021489;28;20440;-51
2023/10/19 12:42:54;;;;;;;26.42;21.83;;;;;;;;;;5029820;28;20350;-49
2023/10/19 12:45:21;;;;;;;25.52;22.65;;;;;;;;;;5029158;28;20151;-49
2023/10/19 12:47:48;;;;;;;25.73;22.50;;;;;;;;;;5013195;28;20053;-50
2023/10/19 12:50:15;;;;;;;25.45;22.65;;;;;;;;;;5013300;28;20030;-49
2023/10/19 12:52:42;;;;;;;24.85;22.20;;;;;;;;;;5014352;28;20033;-48
2023/10/19 12:55:08;;;;;;;26.65;22.88;;;;;;;;;;5021170;28;20037;-49
2023/10/19 12:57:35;;;;;;;24.77;22.00;;;;;;;;;;5032713;28;20045;-49
2023/10/19 13:00:23;;;;;;;24.85;21.20;;;;;;;;;;5021454;28;20041;-49
2023/10/19 13:02:47;;;;;;;28.55;23.10;;;;;;;;;;5032948;28;20038;-50
2023/10/19 13:05:18;;;;;;;24.23;21.73;;;;;;;;;;5027654;28;20025;-48
2023/10/19 13:07:47;;;;;;;23.45;20.13;;;;;;;;;;5052385;28;20537;-49
2023/10/19 13:10:13;;;;;;;24.55;21.88;;;;;;;;;;5033585;28;20045;-49
2023/10/19 13:12:40;;;;;;;25.98;21.80;;;;;;;;;;5024548;28;20053;-49
2023/10/19 13:15:13;;;;;;;23.05;20.50;;;;;;;;;;5012593;28;20545;-49
2023/10/19 13:17:43;;;;;;;23.15;20.67;;;;;;;;;;4993645;28;20034;-50
2023/10/19 13:20:17;;;;;;;23.33;20.83;;;;;;;;;;5025496;28;20026;-49
2023/10/19 13:22:44;;;;;;;23.48;21.05;;;;;;;;;;5014692;28;20038;-52
2023/10/19 13:25:16;;;;;;;19.70;17.83;;;;;;;;;;5031982;28;20021;-48
2023/10/19 13:27:44;;;;;;;19.23;17.25;;;;;;;;;;5029311;28;20056;-53
2023/10/19 13:30:10;;;;;;;19.17;17.13;;;;;;;;;;5032261;28;20029;-51
2023/10/19 13:32:37;;;;;;;17.90;16.13;;;;;;;;;;5021089;28;20030;-49
2023/10/19 13:35:03;;;;;;;20.30;17.75;;;;;;;;;;5026876;28;20036;-48
2023/10/19 13:37:30;;;;;;;21.10;18.90;;;;;;;;;;5027306;28;20104;-51
2023/10/19 13:39:56;;;;;;;27.17;22.80;;;;;;;;;;5015248;28;20030;-49
2023/10/19 13:42:22;;;;;;;19.60;17.50;;;;;;;;;;5025871;28;20036;-49
2023/10/19 13:44:49;;;;;;;20.15;18.05;;;;;;;;;;5017176;28;20454;-51
2023/10/19 13:47:15;;;;;;;18.02;16.25;;;;;;;;;;5034753;28;20396;-49
2023/10/19 13:49:42;;;;;;;18.70;16.70;;;;;;;;;;5013484;28;20037;-49
2023/10/19 13:52:11;;;;;;;19.47;17.37;;;;;;;;;;5022043;28;20063;-51
2023/10/19 13:54:37;;;;;;;18.15;16.27;;;;;;;;;;5025982;28;20030;-48
2023/10/19 13:57:04;;;;;;;19.33;17.30;;;;;;;;;;5011973;28;20018;-50
2023/10/19 13:59:33;;;;;;;18.58;16.58;;;;;;;;;;4994356;28;20022;-50
2023/10/19 14:01:59;;;;;;;16.52;14.80;;;;;;;;;;5031229;28;20045;-48
2023/10/19 14:04:26;;;;;;;19.45;16.10;;;;;;;;;;5013489;28;20029;-48
2023/10/19 14:06:53;;;;;;;19.58;15.85;;;;;;;;;;4999657;28;20479;-50
2023/10/19 14:09:23;;;;;;;16.98;15.27;;;;;;;;;;5015875;28;20116;-48
2023/10/19 14:11:49;;;;;;;16.48;13.80;;;;;;;;;;5012926;28;20025;-49
2023/10/19 14:14:15;;;;;;;16.87;15.23;;;;;;;;;;5022096;28;20049;-50
2023/10/19 14:16:44;;;;;;;18.10;14.77;;;;;;;;;;5043752;28;20108;-49
2023/10/19 14:19:10;;;;;;;15.38;13.98;;;;;;;;;;5051558;28;20029;-49
2023/10/19 14:21:39;;;;;;;15.50;13.75;;;;;;;;;;5014393;28;20469;-50
2023/10/19 14:24:08;;;;;;;13.52;12.27;;;;;;;;;;5019101;28;20076;-49
2023/10/19 14:26:34;;;;;;;14.48;13.05;;;;;;;;;;5036034;28;20033;-49
2023/10/19 14:29:01;;;;;;;16.50;14.70;;;;;;;;;;5046018;28;20038;-49
2023/10/19 14:31:27;;;;;;;14.45;12.98;;;;;;;;;;5018069;28;20026;-50
2023/10/19 14:33:53;;;;;;;14.82;13.30;;;;;;;;;;5027716;28;20025;-50
2023/10/19 14:36:20;;;;;;;15.93;14.33;;;;;;;;;;5020309;28;20076;-48
2023/10/19 14:38:46;;;;;;;14.07;12.70;;;;;;;;;;4994229;28;20057;-49
2023/10/19 14:41:12;;;;;;;14.97;13.40;;;;;;;;;;5011579;28;20373;-49
2023/10/19 14:43:38;;;;;;;12.25;11.05;;;;;;;;;;4992542;28;20025;-48
2023/10/19 14:46:08;;;;;;;12.33;11.10;;;;;;;;;;5010369;28;20079;-50
2023/10/19 14:48:35;;;;;;;13.02;11.80;;;;;;;;;;4996097;28;21094;-49